createdAt,value
2022-09-03T00:02:17.004Z,98321.52
2022-09-03T00:05:51.383Z,98318.98
2022-09-03T00:09:27.238Z,98320.46
2022-09-03T00:12:58.569Z,98321.88
2022-09-03T00:16:41.416Z,98322.33
2022-09-03T00:20:08.773Z,98317.79
2022-09-03T00:23:45.615Z,98324.38
2022-09-03T00:27:25.237Z,98325.83
2022-09-03T00:31:18.518Z,98319.64
2022-09-03T00:34:48.628Z,98315.85
2022-09-03T00:38:18.083Z,98306.39
2022-09-03T00:42:14.230Z,98301.52
2022-09-03T00:45:52.894Z,98298.15
2022-09-03T00:49:46.556Z,98297.11
2022-09-03T00:53:41.351Z,98297.05
2022-09-03T00:57:18.135Z,98296.40
2022-09-03T01:00:43.945Z,98299.44
2022-09-03T01:04:44.953Z,98303.30
2022-09-03T01:08:26.614Z,98303.10
2022-09-03T01:12:15.904Z,98301.79
2022-09-03T01:16:16.472Z,98303.27
2022-09-03T01:20:23.365Z,98300.15
2022-09-03T01:24:23.047Z,98299.45
2022-09-03T01:28:09.281Z,98302.80
2022-09-03T01:31:41.490Z,98306.31
2022-09-03T01:35:19.340Z,98304.75
2022-09-03T01:38:45.511Z,98302.70
2022-09-03T01:42:28.596Z,98308.58
2022-09-03T01:46:08.630Z,98308.16
2022-09-03T01:49:47.068Z,98307.65
2022-09-03T01:53:46.874Z,98306.78
2022-09-03T01:57:37.030Z,98304.14
2022-09-03T02:01:10.447Z,98300.78
2022-09-03T02:04:36.744Z,98298.19
2022-09-03T02:08:13.198Z,98298.48
2022-09-03T02:11:57.885Z,98301.17
2022-09-03T02:15:49.392Z,98304.58
2022-09-03T02:19:31.410Z,98308.13
2022-09-03T02:22:54.332Z,98310.39
2022-09-03T02:26:29.719Z,98311.23
2022-09-03T02:30:07.802Z,98310.54
2022-09-03T02:33:46.328Z,98310.98
2022-09-03T02:37:20.240Z,98304.61
2022-09-03T02:40:56.737Z,98303.75
2022-09-03T02:44:37.768Z,98297.95
2022-09-03T02:48:11.563Z,98300.48
2022-09-03T02:51:47.087Z,98302.33
2022-09-03T02:55:23.999Z,98302.80
2022-09-03T02:59:02.050Z,98306.40
2022-09-03T03:02:37.801Z,98302.60
2022-09-03T03:06:14.547Z,98308.95
2022-09-03T03:09:51.228Z,98306.67
2022-09-03T03:13:29.704Z,98301.33
2022-09-03T03:17:05.188Z,98306.83
2022-09-03T03:20:42.202Z,98316.70
2022-09-03T03:24:18.540Z,98316.71
2022-09-03T03:28:14.565Z,98317.05
2022-09-03T03:31:36.728Z,98314.39
2022-09-03T03:35:32.296Z,98314.56
2022-09-03T03:38:56.344Z,98315.19
2022-09-03T03:42:34.394Z,98314.64
2022-09-03T03:46:08.169Z,98317.98
2022-09-03T03:49:44.584Z,98316.67
2022-09-03T03:53:21.399Z,98318.84
2022-09-03T03:56:57.920Z,98321.66
2022-09-03T04:00:37.410Z,98326.96
2022-09-03T04:04:11.715Z,98323.50
2022-09-03T04:07:48.599Z,98320.13
2022-09-03T04:11:26.203Z,98315.77
2022-09-03T04:15:20.791Z,98312.45
2022-09-03T04:18:42.608Z,98312.23
2022-09-03T04:22:20.806Z,98313.02
2022-09-03T04:25:55.930Z,98307.98
2022-09-03T04:29:33.283Z,98308.38
2022-09-03T04:33:30.150Z,98305.65
2022-09-03T04:36:53.021Z,98304.77
2022-09-03T04:40:28.944Z,98304.33
2022-09-03T04:44:05.354Z,98302.23
2022-09-03T04:47:42.364Z,98300.34
2022-09-03T04:51:23.326Z,98300.98
2022-09-03T04:55:15.252Z,98312.63
2022-09-03T04:58:38.737Z,98316.21
2022-09-03T05:02:15.644Z,98324.73
2022-09-03T05:05:57.157Z,98324.39
2022-09-03T05:09:27.357Z,98318.70
2022-09-03T05:13:06.019Z,98315.56
2022-09-03T05:16:41.065Z,98316.98
2022-09-03T05:20:36.957Z,98321.46
2022-09-03T05:24:00.472Z,98331.33
2022-09-03T05:27:55.262Z,98334.41
2022-09-03T05:31:19.013Z,98335.50
2022-09-03T05:34:53.861Z,98335.05
2022-09-03T05:38:30.717Z,98331.45
2022-09-03T05:42:27.068Z,98336.48
2022-09-03T05:45:49.191Z,98333.77
2022-09-03T05:49:25.566Z,98339.95
2022-09-03T05:53:01.984Z,98338.48
2022-09-03T05:56:43.109Z,98338.39
2022-09-03T06:00:16.272Z,98335.80
2022-09-03T06:03:58.521Z,98329.67
2022-09-03T06:07:29.532Z,98327.06
2022-09-03T06:11:07.467Z,98324.16
2022-09-03T06:14:42.736Z,98331.80
2022-09-03T06:18:38.621Z,98335.11
2022-09-03T06:22:00.148Z,98336.34
2022-09-03T06:25:37.071Z,98331.65
2022-09-03T06:29:14.428Z,98331.86
2022-09-03T06:32:50.692Z,98331.29
2022-09-03T06:36:27.263Z,98326.77
2022-09-03T06:40:04.249Z,98332.63
2022-09-03T06:43:42.814Z,98330.27
2022-09-03T06:47:36.660Z,98337.77
2022-09-03T06:51:01.261Z,98342.27
2022-09-03T06:54:35.047Z,98342.42
2022-09-03T06:58:12.962Z,98345.05
2022-09-03T07:01:48.593Z,98347.67
2022-09-03T07:05:28.705Z,98341.27
2022-09-03T07:09:02.416Z,98344.09
2022-09-03T07:12:38.861Z,98342.29
2022-09-03T07:16:21.029Z,98344.96
2022-09-03T07:19:52.384Z,98342.14
2022-09-03T07:23:30.826Z,98348.13
2022-09-03T07:27:06.823Z,98351.64
2022-09-03T07:30:42.796Z,98360.18
2022-09-03T07:34:22.201Z,98359.23
2022-09-03T07:37:56.659Z,98355.85
2022-09-03T07:41:33.647Z,98350.58
2022-09-03T07:45:29.758Z,98353.58
2022-09-03T07:48:56.438Z,98352.59
2022-09-03T07:52:28.321Z,98355.97
2022-09-03T07:56:10.806Z,98347.46
2022-09-03T07:59:42.369Z,98346.64
2022-09-03T08:03:19.048Z,98352.27
2022-09-03T08:06:56.867Z,98356.20
2022-09-03T08:10:38.343Z,98363.42
2022-09-03T08:14:13.823Z,98358.84
2022-09-03T08:17:45.860Z,98354.23
2022-09-03T08:21:24.243Z,98356.73
2022-09-03T08:25:00.237Z,98355.79
2022-09-03T08:28:37.880Z,98361.64
2022-09-03T08:32:34.284Z,98368.85
2022-09-03T08:35:56.459Z,98365.27
2022-09-03T08:39:33.140Z,98364.77
2022-09-03T08:43:18.952Z,98367.42
2022-09-03T08:46:51.736Z,98363.21
2022-09-03T08:50:32.770Z,98353.80
2022-09-03T08:54:00.947Z,98343.70
2022-09-03T08:57:43.610Z,98342.09
2022-09-03T09:01:56.986Z,98341.86
2022-09-03T09:05:57.271Z,98348.39
2022-09-03T09:09:41.802Z,98343.86
2022-09-03T09:13:17.854Z,98341.57
2022-09-03T09:16:57.004Z,98338.05
2022-09-03T09:20:34.879Z,98343.47
2022-09-03T09:24:03.802Z,98338.37
2022-09-03T09:27:34.436Z,98340.11
2022-09-03T09:31:16.135Z,98334.57
2022-09-03T09:34:52.062Z,98334.92
2022-09-03T09:38:30.052Z,98340.98
2022-09-03T09:42:22.345Z,98340.15
2022-09-03T09:45:46.346Z,98343.16
2022-09-03T09:49:35.747Z,98336.46
2022-09-03T09:53:14.650Z,98338.46
2022-09-03T09:56:37.640Z,98340.39
2022-09-03T10:00:17.242Z,98345.17
2022-09-03T10:04:08.083Z,98341.83
2022-09-03T10:08:18.005Z,98341.14
2022-09-03T10:11:46.040Z,98351.30
2022-09-03T10:15:30.668Z,98348.69
2022-09-03T10:19:03.145Z,98344.92
2022-09-03T10:22:35.301Z,98344.43
2022-09-03T10:26:13.206Z,98340.90
2022-09-03T10:29:43.411Z,98344.02
2022-09-03T10:33:29.811Z,98339.70
2022-09-03T10:37:17.171Z,98338.05
2022-09-03T10:40:45.091Z,98330.02
2022-09-03T10:44:55.127Z,98334.05
2022-09-03T10:48:29.060Z,98336.89
2022-09-03T10:52:23.454Z,98330.96
2022-09-03T10:56:17.356Z,98327.06
2022-09-03T11:00:12.372Z,98325.50
2022-09-03T11:03:48.546Z,98317.55
2022-09-03T11:07:17.696Z,98314.80
2022-09-03T11:11:13.598Z,98313.83
2022-09-03T11:14:43.155Z,98317.15
2022-09-03T11:18:27.858Z,98319.52
2022-09-03T11:22:10.578Z,98317.53
2022-09-03T11:25:36.938Z,98318.92
2022-09-03T11:29:38.225Z,98316.64
2022-09-03T11:33:23.676Z,98313.64
2022-09-03T11:36:48.099Z,98309.46
2022-09-03T11:40:59.669Z,98310.77
2022-09-03T11:44:21.594Z,98312.51
2022-09-03T11:47:59.374Z,98304.52
2022-09-03T11:51:37.858Z,98305.67
2022-09-03T11:55:11.737Z,98304.48
2022-09-03T11:59:01.259Z,98301.56
2022-09-03T12:02:53.311Z,98303.38
2022-09-03T12:07:20.267Z,98300.46
2022-09-03T12:11:12.144Z,98300.59
2022-09-03T12:14:49.666Z,98303.62
2022-09-03T12:18:33.474Z,98304.89
2022-09-03T12:22:17.771Z,98304.16
2022-09-03T12:26:07.535Z,98301.34
2022-09-03T12:29:32.206Z,98296.79
2022-09-03T12:33:24.561Z,98294.58
2022-09-03T12:36:49.376Z,98294.20
2022-09-03T12:44:31.481Z,98287.33
2022-09-03T12:48:02.254Z,98284.44
2022-09-03T12:51:50.897Z,98287.02
2022-09-03T12:56:08.880Z,98287.91
2022-09-03T12:59:54.330Z,98283.88
2022-09-03T13:03:43.498Z,98279.84
2022-09-03T13:07:33.650Z,98280.91
2022-09-03T13:11:03.927Z,98277.18
2022-09-03T13:14:52.796Z,98276.48
2022-09-03T13:18:26.377Z,98275.84
2022-09-03T13:22:11.164Z,98279.71
2022-09-03T13:25:46.426Z,98270.91
2022-09-03T13:29:35.336Z,98274.31
2022-09-03T13:33:15.617Z,98276.50
2022-09-03T13:36:50.255Z,98280.14
2022-09-03T13:40:33.119Z,98278.80
2022-09-03T13:44:37.931Z,98274.83
2022-09-03T13:48:33.165Z,98275.50
2022-09-03T13:52:04.254Z,98273.15
2022-09-03T13:55:48.241Z,98274.06
2022-09-03T13:59:19.844Z,98263.34
2022-09-03T14:03:36.656Z,98260.36
2022-09-03T14:07:25.326Z,98259.36
2022-09-03T14:11:06.286Z,98268.13
2022-09-03T14:15:16.082Z,98273.11
2022-09-03T14:18:45.241Z,98272.98
2022-09-03T14:22:24.265Z,98271.13
2022-09-03T14:26:01.542Z,98269.77
2022-09-03T14:29:31.370Z,98271.98
2022-09-03T14:33:47.119Z,98272.59
2022-09-03T14:37:24.113Z,98273.39
2022-09-03T14:40:54.381Z,98277.08
2022-09-03T14:44:39.838Z,98266.94
2022-09-03T14:48:31.645Z,98262.06
2022-09-03T14:52:22.493Z,98262.65
2022-09-03T14:56:09.647Z,98264.20
2022-09-03T15:00:19.934Z,98261.60
2022-09-03T15:03:51.504Z,98263.98
2022-09-03T15:07:32.969Z,98261.62
2022-09-03T15:11:00.956Z,98258.77
2022-09-03T15:14:46.598Z,98250.35
2022-09-03T15:18:47.798Z,98249.45
2022-09-03T15:22:49.958Z,98246.52
2022-09-03T15:26:39.589Z,98247.84
2022-09-03T15:30:21.395Z,98247.34
2022-09-03T15:33:52.981Z,98247.18
2022-09-03T15:37:40.566Z,98241.45
2022-09-03T15:41:11.056Z,98235.52
2022-09-03T15:44:54.971Z,98237.30
2022-09-03T15:49:12.574Z,98234.11
2022-09-03T15:52:45.896Z,98235.77
2022-09-03T15:56:36.479Z,98235.64
2022-09-03T16:00:19.103Z,98244.77
2022-09-03T16:03:59.582Z,98245.73
2022-09-03T16:07:37.524Z,98247.05
2022-09-03T16:11:23.027Z,98246.89
2022-09-03T16:15:00.403Z,98247.68
2022-09-03T16:18:22.542Z,98249.15
2022-09-03T16:22:18.837Z,98252.33
2022-09-03T16:25:52.754Z,98250.20
2022-09-03T16:29:26.046Z,98248.05
2022-09-03T16:33:36.737Z,98249.23
2022-09-03T16:37:23.479Z,98251.27
2022-09-03T16:41:08.907Z,98248.77
2022-09-03T16:44:39.901Z,98254.47
2022-09-03T16:48:17.545Z,98258.38
2022-09-03T16:51:52.849Z,98256.34
2022-09-03T16:55:39.781Z,98252.95
2022-09-03T16:59:31.781Z,98252.20
2022-09-03T17:03:26.531Z,98255.56
2022-09-03T17:07:18.104Z,98260.27
2022-09-03T17:11:18.738Z,98260.16
2022-09-03T17:15:22.767Z,98263.38
2022-09-03T17:18:52.138Z,98264.88
2022-09-03T17:22:52.942Z,98261.19
2022-09-03T17:26:29.986Z,98260.97
2022-09-03T17:30:03.160Z,98262.63
2022-09-03T17:33:45.710Z,98265.73
2022-09-03T17:37:26.801Z,98267.27
2022-09-03T17:41:08.822Z,98270.91
2022-09-03T17:44:45.867Z,98274.48
2022-09-03T17:48:55.693Z,98280.58
2022-09-03T17:52:35.245Z,98284.79
2022-09-03T17:56:02.685Z,98282.47
2022-09-03T17:59:55.888Z,98284.83
2022-09-03T18:03:27.590Z,98285.86
2022-09-03T18:07:10.340Z,98288.33
2022-09-03T18:10:51.143Z,98290.48
2022-09-03T18:14:40.124Z,98293.40
2022-09-03T18:18:28.879Z,98290.75
2022-09-03T18:22:09.118Z,98293.20
2022-09-03T18:25:54.567Z,98293.64
2022-09-03T18:30:05.321Z,98295.71
2022-09-03T18:34:04.804Z,98295.87
2022-09-03T18:37:46.890Z,98300.04
2022-09-03T18:41:49.583Z,98302.23
2022-09-03T18:50:17.792Z,98301.70
2022-09-03T18:54:50.629Z,98294.66
2022-09-03T18:59:09.519Z,98295.73
2022-09-03T19:03:11.495Z,98296.52
2022-09-03T19:07:15.059Z,98292.48
2022-09-03T19:11:10.817Z,98297.27
2022-09-03T19:15:22.977Z,98299.33
2022-09-03T19:19:18.435Z,98300.97
2022-09-03T19:23:17.997Z,98298.13
2022-09-03T19:27:29.901Z,98299.52
2022-09-03T19:31:39.445Z,98307.31
2022-09-03T19:35:37.842Z,98310.73
2022-09-03T19:39:25.459Z,98309.52
2022-09-03T19:43:27.588Z,98311.48
2022-09-03T19:47:12.939Z,98312.06
2022-09-03T19:51:00.579Z,98314.14
2022-09-03T19:54:45.217Z,98310.97
2022-09-03T19:58:42.668Z,98310.92
2022-09-03T20:02:25.240Z,98320.22
2022-09-03T20:06:10.830Z,98324.79
2022-09-03T20:10:15.876Z,98330.70
2022-09-03T20:13:58.330Z,98325.58
2022-09-03T20:17:42.687Z,98326.02
2022-09-03T20:21:59.507Z,98323.06
2022-09-03T20:25:28.732Z,98330.20
2022-09-03T20:29:25.599Z,98335.06
2022-09-03T20:33:22.729Z,98339.54
2022-09-03T20:37:16.225Z,98339.41
2022-09-03T20:41:07.132Z,98340.89
2022-09-03T20:45:08.237Z,98340.28
2022-09-03T20:49:03.685Z,98336.91
2022-09-03T20:52:45.865Z,98333.48
2022-09-03T20:56:29.939Z,98334.73
2022-09-03T21:00:09.977Z,98340.83
2022-09-03T21:04:02.380Z,98335.27
2022-09-03T21:07:50.674Z,98329.23
2022-09-03T21:11:31.101Z,98328.88
2022-09-03T21:15:03.650Z,98327.83
2022-09-03T21:18:39.642Z,98328.05
2022-09-03T21:22:51.957Z,98331.05
2022-09-03T21:26:32.954Z,98331.67
2022-09-03T21:30:16.945Z,98335.02
2022-09-03T21:34:10.718Z,98334.98
2022-09-03T21:37:37.467Z,98339.84
2022-09-03T21:41:49.612Z,98338.36
2022-09-03T21:45:21.104Z,98342.86
2022-09-03T21:48:56.070Z,98338.71
2022-09-03T21:52:54.915Z,98338.48
2022-09-03T21:56:38.621Z,98340.88
2022-09-03T22:00:18.894Z,98340.48
2022-09-03T22:03:43.042Z,98341.90
2022-09-03T22:07:54.999Z,98349.23
2022-09-03T22:11:29.873Z,98349.84
2022-09-03T22:14:55.734Z,98347.08
2022-09-03T22:18:49.821Z,98348.13
2022-09-03T22:23:06.809Z,98346.41
2022-09-03T22:26:38.347Z,98343.69
2022-09-03T22:30:21.496Z,98347.71
2022-09-03T22:34:08.398Z,98344.71
2022-09-03T22:37:58.870Z,98345.27
2022-09-03T22:41:49.142Z,98348.17
2022-09-03T22:45:51.009Z,98348.61
2022-09-03T22:49:54.875Z,98351.90
2022-09-03T22:53:44.915Z,98347.05
2022-09-03T22:57:10.796Z,98353.45
2022-09-03T23:00:54.580Z,98352.46
2022-09-03T23:04:44.382Z,98356.30
2022-09-03T23:08:15.335Z,98351.33
2022-09-03T23:11:51.415Z,98346.02
2022-09-03T23:15:30.255Z,98342.40
2022-09-03T23:18:59.918Z,98340.97
2022-09-03T23:22:59.493Z,98342.58
2022-09-03T23:26:51.886Z,98346.45
2022-09-03T23:30:13.555Z,98352.64
2022-09-03T23:33:55.380Z,98356.56
2022-09-03T23:37:39.061Z,98354.01
2022-09-03T23:41:48.791Z,98358.42
2022-09-03T23:45:19.542Z,98356.81
2022-09-03T23:49:06.031Z,98355.94
2022-09-03T23:52:40.549Z,98354.04
2022-09-03T23:56:17.874Z,98355.61
